This is the latest recevied weather packets stored in our database for station/object KC1DMA. If no packets are shown the sender has not sent any weather packets the latest 10 day(s).
| Time | Temp. | Humidity | Pressure | Rain* | Wind** | Luminosity | Snow |
|---|---|---|---|---|---|---|---|
| 1777378678 | 12.22° C | 59% | 1024.1 hPa | - | - | 223 W/m² | - |
| 1777378070 | 12.22° C | 59% | 1024.1 hPa | - | - | 223 W/m² | - |
| 1777377459 | 12.22° C | 59% | 1023.9 hPa | - | - | 223 W/m² | - |
| 1777376852 | 12.22° C | 70% | 1023.9 hPa | - | - | 120 W/m² | - |
| 1777376246 | 12.22° C | 70% | 1024.3 hPa | - | - | 120 W/m² | - |
| 1777374419 | 6.11° C | 88% | 1023.7 hPa | - | - | 32 W/m² | - |
| 1777372595 | 5.56° C | 90% | 1023.9 hPa | - | - | 25 W/m² | - |
| 1777372294 | 5.56° C | 90% | 1023.8 hPa | - | - | 23 W/m² | - |
| 1777371993 | 5.56° C | 90% | 1023.7 hPa | - | - | 21 W/m² | - |
| 1777371689 | 5.56° C | 90% | 1024 hPa | - | - | 19 W/m² | - |
| 1777371386 | 5.56° C | 90% | 1023.9 hPa | - | - | 16 W/m² | - |
| 1777371083 | 5.56° C | 89% | 1023.9 hPa | - | - | 13 W/m² | - |
| 1777370778 | 5.56° C | 89% | 1023.8 hPa | - | - | 10 W/m² | - |
| 1777370475 | 5.56° C | 89% | 1024.1 hPa | - | - | 7 W/m² | - |
| 1777370174 | 5.56° C | 88% | 1023.9 hPa | - | - | 5 W/m² | - |
| 1777369872 | 5.56° C | 88% | 1024 hPa | - | - | 3 W/m² | - |
| 1777369568 | 6.11° C | 88% | 1023.9 hPa | - | - | 1 W/m² | - |
| 1777369263 | 6.11° C | 87% | 1024.1 hPa | - | - | 1 W/m² | - |
| 1777368962 | 5.56° C | 85% | 1024 hPa | - | - | 0 W/m² | - |
| 1777368657 | 6.11° C | 84% | 1024.1 hPa | - | - | 0 W/m² | - |
| 1777368351 | 6.11° C | 83% | 1023.9 hPa | - | - | 0 W/m² | - |
| 1777368049 | 6.11° C | 83% | 1024.1 hPa | - | - | 0 W/m² | - |
| 1777367746 | 6.11° C | 83% | 1024 hPa | - | - | 0 W/m² | - |
| 1777367443 | 6.11° C | 81% | 1024.2 hPa | - | - | 0 W/m² | - |
| 1777367142 | 6.11° C | 81% | 1024.3 hPa | - | - | 0 W/m² | - |
* Rain since midnight (hover to see other rain measurements)
** Current wind speed in m/s (hover to see current wind gust speed)